HAZ3626 ZPPP-ZGSZ
Flight info
| Callsign | HAZ3626 |
|---|---|
| Flight time | 1h 11m |
| Altitude | 37100 |
| Route | LXI4Q LXI A599 POU W7 SAREX SAREX4 |
| Aircraft | A320/M-SDE3FGHIRWY/LB1 |
Departure
| Time | 2026-04-27 13:59 |
|---|---|
| Airport | Kunming Changshui International Airport (ZPPP) |
Arrival
| Time | 2026-04-27 15:10 |
|---|---|
| Airport | Shenzhen Bao'an International Airport (ZGSZ) |
| Time | Latitude | Longitude | Altitude | Speed | Heading |
|---|---|---|---|---|---|
| 2026-04-27 13:35 | 25.10212 | 102.93383 | 6896 ft | 0 kts | 15° |
| 2026-04-27 13:45 | 25.10209 | 102.93382 | 6896 ft | 3 kts | 15° |
| 2026-04-27 13:45 | 25.10184 | 102.93374 | 6896 ft | 4 kts | 21° |
| 2026-04-27 13:45 | 25.10160 | 102.93361 | 6896 ft | 4 kts | 38° |
| 2026-04-27 13:46 | 25.10145 | 102.93341 | 6897 ft | 4 kts | 90° |
| 2026-04-27 13:46 | 25.10145 | 102.93334 | 6897 ft | 0 kts | 103° |
| 2026-04-27 13:47 | 25.10201 | 102.93376 | 6898 ft | 0 kts | 36° |
| 2026-04-27 13:47 | 25.10210 | 102.93380 | 6896 ft | 0 kts | 18° |
| 2026-04-27 13:48 | 25.10194 | 102.93374 | 6896 ft | 3 kts | 18° |
| 2026-04-27 13:48 | 25.10177 | 102.93369 | 6896 ft | 2 kts | 25° |
| 2026-04-27 13:48 | 25.10162 | 102.93361 | 6896 ft | 3 kts | 25° |
| 2026-04-27 13:49 | 25.10146 | 102.93353 | 6896 ft | 3 kts | 25° |
| 2026-04-27 13:49 | 25.10130 | 102.93345 | 6896 ft | 3 kts | 25° |
| 2026-04-27 13:49 | 25.10118 | 102.93336 | 6896 ft | 0 kts | 74° |
| 2026-04-27 13:50 | 25.10118 | 102.93337 | 6896 ft | 1 kts | 73° |
| 2026-04-27 13:50 | 25.10123 | 102.93355 | 6896 ft | 4 kts | 73° |
| 2026-04-27 13:50 | 25.10131 | 102.93392 | 6896 ft | 6 kts | 83° |
| 2026-04-27 13:51 | 25.10122 | 102.93463 | 6895 ft | 17 kts | 107° |
| 2026-04-27 13:51 | 25.10053 | 102.93590 | 6894 ft | 20 kts | 127° |
| 2026-04-27 13:51 | 25.10011 | 102.93721 | 6894 ft | 19 kts | 59° |
| 2026-04-27 13:51 | 25.10111 | 102.93823 | 6893 ft | 20 kts | 40° |
| 2026-04-27 13:52 | 25.10219 | 102.93918 | 6893 ft | 20 kts | 38° |
| 2026-04-27 13:52 | 25.10327 | 102.94012 | 6893 ft | 20 kts | 39° |
| 2026-04-27 13:52 | 25.10446 | 102.94114 | 6893 ft | 23 kts | 38° |
| 2026-04-27 13:52 | 25.10577 | 102.94229 | 6893 ft | 25 kts | 38° |
| 2026-04-27 13:53 | 25.10873 | 102.94485 | 6891 ft | 28 kts | 38° |
| 2026-04-27 13:53 | 25.11030 | 102.94621 | 6891 ft | 29 kts | 38° |
| 2026-04-27 13:53 | 25.11185 | 102.94755 | 6891 ft | 28 kts | 38° |
| 2026-04-27 13:54 | 25.11337 | 102.94888 | 6890 ft | 28 kts | 38° |
| 2026-04-27 13:54 | 25.11495 | 102.95023 | 6890 ft | 29 kts | 38° |
| 2026-04-27 13:54 | 25.11654 | 102.95161 | 6888 ft | 25 kts | 39° |
| 2026-04-27 13:54 | 25.11792 | 102.95283 | 6888 ft | 26 kts | 38° |
| 2026-04-27 13:55 | 25.11935 | 102.95407 | 6887 ft | 27 kts | 37° |
| 2026-04-27 13:55 | 25.12078 | 102.95536 | 6887 ft | 27 kts | 38° |
| 2026-04-27 13:55 | 25.12202 | 102.95643 | 6887 ft | 18 kts | 41° |
| 2026-04-27 13:55 | 25.12216 | 102.95723 | 6888 ft | 0 kts | 116° |
| 2026-04-27 13:56 | 25.12200 | 102.95751 | 6888 ft | 14 kts | 126° |
| 2026-04-27 13:57 | 25.12117 | 102.95813 | 6889 ft | 15 kts | 200° |
| 2026-04-27 13:57 | 25.12083 | 102.95782 | 6889 ft | 1 kts | 219° |
| 2026-04-27 13:57 | 25.12075 | 102.95775 | 6889 ft | 2 kts | 219° |
| 2026-04-27 13:57 | 25.12050 | 102.95752 | 6889 ft | 12 kts | 219° |
| 2026-04-27 13:58 | 25.11790 | 102.95526 | 6887 ft | 82 kts | 218° |
| 2026-04-27 13:58 | 25.11186 | 102.95005 | 6891 ft | 136 kts | 218° |
| 2026-04-27 13:58 | 25.10316 | 102.94259 | 6898 ft | 179 kts | 217° |
| 2026-04-27 13:58 | 25.09299 | 102.93399 | 7320 ft | 194 kts | 217° |
| 2026-04-27 13:59 | 25.08192 | 102.92450 | 7749 ft | 212 kts | 218° |
| 2026-04-27 13:59 | 25.06994 | 102.91408 | 8260 ft | 227 kts | 221° |
| 2026-04-27 13:59 | 25.05717 | 102.90293 | 8764 ft | 242 kts | 221° |
| 2026-04-27 13:59 | 25.04246 | 102.89269 | 9270 ft | 262 kts | 200° |
| 2026-04-27 14:00 | 25.02365 | 102.89210 | 9784 ft | 287 kts | 169° |
| 2026-04-27 14:00 | 25.00459 | 102.90083 | 10271 ft | 308 kts | 154° |
| 2026-04-27 14:00 | 24.98583 | 102.91367 | 10737 ft | 326 kts | 150° |
| 2026-04-27 14:00 | 24.96653 | 102.92797 | 11210 ft | 342 kts | 150° |
| 2026-04-27 14:01 | 24.94617 | 102.94250 | 11687 ft | 355 kts | 152° |
| 2026-04-27 14:01 | 24.92498 | 102.95649 | 12161 ft | 365 kts | 154° |
| 2026-04-27 14:01 | 24.90248 | 102.97021 | 12644 ft | 374 kts | 155° |
| 2026-04-27 14:01 | 24.87913 | 102.98361 | 13149 ft | 382 kts | 156° |
| 2026-04-27 14:02 | 24.85512 | 102.99697 | 13659 ft | 391 kts | 157° |
| 2026-04-27 14:02 | 24.83067 | 103.01084 | 14138 ft | 400 kts | 153° |
| 2026-04-27 14:02 | 24.80794 | 103.02893 | 14574 ft | 408 kts | 141° |
| 2026-04-27 14:02 | 24.78869 | 103.05224 | 15033 ft | 416 kts | 128° |
| 2026-04-27 14:03 | 24.77415 | 103.07946 | 15488 ft | 422 kts | 116° |
| 2026-04-27 14:03 | 24.76344 | 103.10968 | 15966 ft | 426 kts | 112° |
| 2026-04-27 14:03 | 24.75292 | 103.14032 | 16454 ft | 431 kts | 112° |
| 2026-04-27 14:03 | 24.74230 | 103.17097 | 16943 ft | 435 kts | 112° |
| 2026-04-27 14:04 | 24.73142 | 103.20215 | 17797 ft | 438 kts | 111° |
| 2026-04-27 14:04 | 24.72049 | 103.23348 | 18296 ft | 440 kts | 111° |
| 2026-04-27 14:04 | 24.70949 | 103.26499 | 18782 ft | 443 kts | 114° |
| 2026-04-27 14:04 | 24.69847 | 103.29642 | 19273 ft | 449 kts | 114° |
| 2026-04-27 14:05 | 24.68718 | 103.32865 | 19777 ft | 454 kts | 114° |
| 2026-04-27 14:05 | 24.67582 | 103.36119 | 20276 ft | 458 kts | 114° |
| 2026-04-27 14:05 | 24.66439 | 103.39400 | 20777 ft | 461 kts | 114° |
| 2026-04-27 14:05 | 24.65286 | 103.42702 | 21282 ft | 464 kts | 114° |
| 2026-04-27 14:06 | 24.64121 | 103.46022 | 21780 ft | 467 kts | 114° |
| 2026-04-27 14:06 | 24.62949 | 103.49363 | 22282 ft | 470 kts | 114° |
| 2026-04-27 14:06 | 24.61772 | 103.52717 | 22781 ft | 472 kts | 114° |
| 2026-04-27 14:06 | 24.60588 | 103.56088 | 23283 ft | 474 kts | 114° |
| 2026-04-27 14:07 | 24.59401 | 103.59474 | 23777 ft | 476 kts | 115° |
| 2026-04-27 14:07 | 24.58222 | 103.62829 | 24270 ft | 477 kts | 115° |
| 2026-04-27 14:07 | 24.57024 | 103.66235 | 24773 ft | 478 kts | 115° |
| 2026-04-27 14:07 | 24.55824 | 103.69642 | 25262 ft | 478 kts | 115° |
| 2026-04-27 14:08 | 24.54633 | 103.73053 | 25766 ft | 479 kts | 113° |
| 2026-04-27 14:08 | 24.53689 | 103.76573 | 26267 ft | 483 kts | 105° |
| 2026-04-27 14:08 | 24.52937 | 103.80175 | 26770 ft | 484 kts | 105° |
| 2026-04-27 14:08 | 24.52179 | 103.83774 | 27267 ft | 484 kts | 106° |
| 2026-04-27 14:09 | 24.51415 | 103.87367 | 27764 ft | 483 kts | 106° |
| 2026-04-27 14:09 | 24.50659 | 103.90903 | 28253 ft | 482 kts | 106° |
| 2026-04-27 14:09 | 24.49891 | 103.94482 | 28756 ft | 481 kts | 106° |
| 2026-04-27 14:09 | 24.49124 | 103.98055 | 29252 ft | 480 kts | 107° |
| 2026-04-27 14:10 | 24.48360 | 104.01616 | 29749 ft | 479 kts | 107° |
| 2026-04-27 14:10 | 24.47598 | 104.05169 | 30250 ft | 478 kts | 107° |
| 2026-04-27 14:10 | 24.46838 | 104.08717 | 30750 ft | 477 kts | 107° |
| 2026-04-27 14:10 | 24.46080 | 104.12254 | 31240 ft | 475 kts | 107° |
| 2026-04-27 14:11 | 24.45325 | 104.15774 | 31739 ft | 473 kts | 107° |
| 2026-04-27 14:11 | 24.44580 | 104.19233 | 32181 ft | 472 kts | 107° |
| 2026-04-27 14:11 | 24.43821 | 104.22746 | 32544 ft | 474 kts | 107° |
| 2026-04-27 14:11 | 24.43060 | 104.26275 | 32854 ft | 477 kts | 108° |
| 2026-04-27 14:12 | 24.42293 | 104.29828 | 33113 ft | 481 kts | 107° |
| 2026-04-27 14:12 | 24.41522 | 104.33405 | 33436 ft | 483 kts | 107° |
| 2026-04-27 14:12 | 24.40748 | 104.36998 | 33733 ft | 485 kts | 107° |
| 2026-04-27 14:12 | 24.39971 | 104.40606 | 34025 ft | 487 kts | 108° |
| 2026-04-27 14:13 | 24.39189 | 104.44227 | 34279 ft | 489 kts | 107° |
| 2026-04-27 14:13 | 24.38413 | 104.47810 | 34505 ft | 491 kts | 102° |
| 2026-04-27 14:13 | 24.37618 | 104.51467 | 34612 ft | 498 kts | 102° |
| 2026-04-27 14:14 | 24.35983 | 104.58951 | 34908 ft | 508 kts | 103° |
| 2026-04-27 14:14 | 24.35155 | 104.62720 | 35110 ft | 510 kts | 102° |
| 2026-04-27 14:14 | 24.34326 | 104.66514 | 35332 ft | 512 kts | 102° |
| 2026-04-27 14:14 | 24.33497 | 104.70319 | 35597 ft | 513 kts | 102° |
| 2026-04-27 14:15 | 24.32676 | 104.74078 | 35804 ft | 515 kts | 102° |
| 2026-04-27 14:15 | 24.31837 | 104.77910 | 35967 ft | 519 kts | 102° |
| 2026-04-27 14:15 | 24.30992 | 104.81763 | 36164 ft | 522 kts | 102° |
| 2026-04-27 14:15 | 24.30140 | 104.85645 | 36294 ft | 527 kts | 102° |
| 2026-04-27 14:16 | 24.29278 | 104.89565 | 36421 ft | 531 kts | 102° |
| 2026-04-27 14:16 | 24.28406 | 104.93516 | 36545 ft | 535 kts | 102° |
| 2026-04-27 14:16 | 24.27527 | 104.97498 | 36669 ft | 539 kts | 102° |
| 2026-04-27 14:17 | 24.25762 | 105.05485 | 36910 ft | 547 kts | 102° |
| 2026-04-27 14:17 | 24.24862 | 105.09539 | 37069 ft | 549 kts | 102° |
| 2026-04-27 14:17 | 24.23956 | 105.13625 | 37111 ft | 556 kts | 102° |
| 2026-04-27 14:18 | 24.22109 | 105.21956 | 37115 ft | 570 kts | 102° |
| 2026-04-27 14:18 | 24.20127 | 105.30461 | 37107 ft | 582 kts | 103° |
| 2026-04-27 14:19 | 24.17999 | 105.39049 | 37110 ft | 594 kts | 104° |
| 2026-04-27 14:19 | 24.15811 | 105.47844 | 37106 ft | 603 kts | 104° |
| 2026-04-27 14:20 | 24.13628 | 105.56784 | 37110 ft | 613 kts | 103° |
| 2026-04-27 14:20 | 24.11434 | 105.65850 | 37102 ft | 618 kts | 103° |
| 2026-04-27 14:21 | 24.09293 | 105.74901 | 37113 ft | 618 kts | 102° |
| 2026-04-27 14:21 | 24.07468 | 105.84085 | 37114 ft | 617 kts | 99° |
| 2026-04-27 14:22 | 24.05801 | 105.93280 | 37114 ft | 616 kts | 99° |
| 2026-04-27 14:22 | 24.04051 | 106.02398 | 37095 ft | 617 kts | 100° |
| 2026-04-27 14:23 | 24.02183 | 106.11572 | 37100 ft | 619 kts | 101° |
| 2026-04-27 14:23 | 24.00295 | 106.20754 | 37103 ft | 619 kts | 100° |
| 2026-04-27 14:24 | 23.98444 | 106.29944 | 37116 ft | 618 kts | 100° |
| 2026-04-27 14:24 | 23.96619 | 106.39068 | 37104 ft | 619 kts | 100° |
| 2026-04-27 14:25 | 23.94760 | 106.48261 | 37107 ft | 620 kts | 100° |
| 2026-04-27 14:25 | 23.92887 | 106.57458 | 37109 ft | 620 kts | 99° |
| 2026-04-27 14:26 | 23.91909 | 106.66749 | 37109 ft | 614 kts | 89° |
| 2026-04-27 14:26 | 23.91308 | 106.75992 | 37107 ft | 614 kts | 89° |
| 2026-04-27 14:27 | 23.90675 | 106.85298 | 37110 ft | 614 kts | 89° |
| 2026-04-27 14:27 | 23.90045 | 106.94604 | 37113 ft | 614 kts | 89° |
| 2026-04-27 14:28 | 23.89417 | 107.03906 | 37108 ft | 614 kts | 89° |
| 2026-04-27 14:28 | 23.88789 | 107.13143 | 37106 ft | 614 kts | 92° |
| 2026-04-27 14:29 | 23.88144 | 107.22484 | 37112 ft | 620 kts | 94° |
| 2026-04-27 14:29 | 23.87487 | 107.31895 | 37110 ft | 622 kts | 94° |
| 2026-04-27 14:30 | 23.86817 | 107.41315 | 37110 ft | 622 kts | 94° |
| 2026-04-27 14:30 | 23.86148 | 107.50659 | 37109 ft | 621 kts | 94° |
| 2026-04-27 14:31 | 23.85481 | 107.60069 | 37119 ft | 621 kts | 94° |
| 2026-04-27 14:31 | 23.84924 | 107.67887 | 37123 ft | 621 kts | 94° |
| 2026-04-27 14:32 | 23.84239 | 107.77282 | 37120 ft | 621 kts | 94° |
| 2026-04-27 14:32 | 23.83444 | 107.88213 | 37113 ft | 622 kts | 94° |
| 2026-04-27 14:33 | 23.82937 | 107.97633 | 37112 ft | 621 kts | 92° |
| 2026-04-27 14:33 | 23.82613 | 108.05469 | 37109 ft | 621 kts | 91° |
| 2026-04-27 14:34 | 23.82184 | 108.14895 | 37108 ft | 621 kts | 92° |
| 2026-04-27 14:34 | 23.81574 | 108.25862 | 37120 ft | 623 kts | 93° |
| 2026-04-27 14:35 | 23.81107 | 108.33770 | 37128 ft | 623 kts | 93° |
| 2026-04-27 14:35 | 23.80563 | 108.43114 | 37109 ft | 620 kts | 93° |
| 2026-04-27 14:36 | 23.80030 | 108.52521 | 37107 ft | 621 kts | 93° |
| 2026-04-27 14:36 | 23.79500 | 108.61936 | 37109 ft | 621 kts | 93° |
| 2026-04-27 14:37 | 23.78951 | 108.71357 | 37109 ft | 622 kts | 93° |
| 2026-04-27 14:37 | 23.78394 | 108.80714 | 37114 ft | 622 kts | 93° |
| 2026-04-27 14:38 | 23.77828 | 108.90135 | 37121 ft | 622 kts | 93° |
| 2026-04-27 14:38 | 23.77258 | 108.99556 | 37125 ft | 622 kts | 93° |
| 2026-04-27 14:39 | 23.76690 | 109.08970 | 37117 ft | 622 kts | 93° |
| 2026-04-27 14:39 | 23.75620 | 109.18311 | 37117 ft | 619 kts | 105° |
| 2026-04-27 14:40 | 23.73768 | 109.27428 | 37115 ft | 619 kts | 105° |
| 2026-04-27 14:40 | 23.71908 | 109.36602 | 37111 ft | 619 kts | 105° |
| 2026-04-27 14:41 | 23.70055 | 109.45772 | 37107 ft | 619 kts | 104° |
| 2026-04-27 14:41 | 23.68202 | 109.54951 | 37110 ft | 619 kts | 105° |
| 2026-04-27 14:42 | 23.66350 | 109.64062 | 37106 ft | 619 kts | 105° |
| 2026-04-27 14:42 | 23.64466 | 109.73225 | 37108 ft | 619 kts | 105° |
| 2026-04-27 14:43 | 23.62565 | 109.82387 | 37107 ft | 619 kts | 105° |
| 2026-04-27 14:43 | 23.60656 | 109.91550 | 37116 ft | 619 kts | 102° |
| 2026-04-27 14:44 | 23.58762 | 110.00644 | 37106 ft | 620 kts | 101° |
| 2026-04-27 14:44 | 23.56855 | 110.09808 | 37112 ft | 620 kts | 101° |
| 2026-04-27 14:45 | 23.54941 | 110.18977 | 37120 ft | 621 kts | 101° |
| 2026-04-27 14:45 | 23.53010 | 110.28150 | 37117 ft | 621 kts | 103° |
| 2026-04-27 14:46 | 23.51068 | 110.37367 | 37110 ft | 635 kts | 106° |
| 2026-04-27 14:46 | 23.49105 | 110.46857 | 37107 ft | 649 kts | 104° |
| 2026-04-27 14:47 | 23.47159 | 110.56549 | 37111 ft | 661 kts | 104° |
| 2026-04-27 14:47 | 23.45169 | 110.66412 | 37123 ft | 672 kts | 104° |
| 2026-04-27 14:48 | 23.43110 | 110.76421 | 37120 ft | 682 kts | 104° |
| 2026-04-27 14:48 | 23.39897 | 110.91569 | 37083 ft | 693 kts | 105° |
| 2026-04-27 14:49 | 23.38813 | 110.96656 | 37227 ft | 692 kts | 105° |
| 2026-04-27 14:49 | 23.37725 | 111.01751 | 37203 ft | 684 kts | 105° |
| 2026-04-27 14:49 | 23.36656 | 111.06778 | 37420 ft | 684 kts | 106° |
| 2026-04-27 14:49 | 23.35577 | 111.11858 | 37127 ft | 691 kts | 105° |
| 2026-04-27 14:50 | 23.33442 | 111.21981 | 37345 ft | 687 kts | 104° |
| 2026-04-27 14:50 | 23.32390 | 111.27086 | 37103 ft | 693 kts | 104° |
| 2026-04-27 14:50 | 23.31357 | 111.32168 | 37177 ft | 686 kts | 105° |
| 2026-04-27 14:51 | 23.29327 | 111.42288 | 37108 ft | 685 kts | 106° |
| 2026-04-27 14:51 | 23.27277 | 111.52393 | 37101 ft | 684 kts | 105° |
| 2026-04-27 14:52 | 23.26252 | 111.57343 | 37264 ft | 675 kts | 104° |
| 2026-04-27 14:52 | 23.25199 | 111.62351 | 37062 ft | 682 kts | 106° |
| 2026-04-27 14:52 | 23.23047 | 111.72363 | 37109 ft | 682 kts | 105° |
| 2026-04-27 14:53 | 23.20885 | 111.82386 | 37109 ft | 681 kts | 105° |
| 2026-04-27 14:53 | 23.18757 | 111.92439 | 37124 ft | 681 kts | 101° |
| 2026-04-27 14:54 | 23.16709 | 112.02413 | 37113 ft | 679 kts | 103° |
| 2026-04-27 14:54 | 23.14666 | 112.12391 | 37835 ft | 642 kts | 103° |
| 2026-04-27 14:55 | 23.13765 | 112.16764 | 40361 ft | 548 kts | 103° |
| 2026-04-27 14:55 | 23.12983 | 112.20561 | 42796 ft | 490 kts | 103° |
| 2026-04-27 14:55 | 23.11497 | 112.27797 | 41950 ft | 492 kts | 103° |
| 2026-04-27 14:56 | 23.10768 | 112.31364 | 41378 ft | 489 kts | 103° |
| 2026-04-27 14:56 | 23.10033 | 112.34965 | 40781 ft | 486 kts | 102° |
| 2026-04-27 14:56 | 23.09306 | 112.38553 | 39961 ft | 488 kts | 102° |
| 2026-04-27 14:56 | 23.08580 | 112.42152 | 39142 ft | 489 kts | 102° |
| 2026-04-27 14:57 | 23.07871 | 112.45766 | 38436 ft | 488 kts | 102° |
| 2026-04-27 14:57 | 23.07217 | 112.49375 | 37761 ft | 485 kts | 100° |
| 2026-04-27 14:57 | 23.06671 | 112.52988 | 37053 ft | 484 kts | 99° |
| 2026-04-27 14:57 | 23.06179 | 112.56592 | 36276 ft | 483 kts | 98° |
| 2026-04-27 14:58 | 23.05773 | 112.60168 | 35425 ft | 484 kts | 96° |
| 2026-04-27 14:58 | 23.05416 | 112.63792 | 34599 ft | 483 kts | 95° |
| 2026-04-27 14:58 | 23.05102 | 112.67420 | 33748 ft | 483 kts | 95° |
| 2026-04-27 14:58 | 23.04772 | 112.71051 | 32701 ft | 485 kts | 96° |
| 2026-04-27 14:59 | 23.04409 | 112.74698 | 31757 ft | 486 kts | 97° |
| 2026-04-27 14:59 | 23.04025 | 112.78329 | 30938 ft | 483 kts | 97° |
| 2026-04-27 14:59 | 23.03567 | 112.81932 | 29898 ft | 481 kts | 101° |
| 2026-04-27 14:59 | 23.02815 | 112.85441 | 28638 ft | 475 kts | 105° |
| 2026-04-27 15:00 | 23.01928 | 112.88837 | 27401 ft | 475 kts | 106° |
| 2026-04-27 15:00 | 23.01030 | 112.92289 | 26141 ft | 476 kts | 105° |
| 2026-04-27 15:00 | 23.00214 | 112.95782 | 24882 ft | 479 kts | 103° |
| 2026-04-27 15:00 | 22.99502 | 112.99307 | 23624 ft | 475 kts | 101° |
| 2026-04-27 15:01 | 22.98881 | 113.02796 | 22173 ft | 466 kts | 100° |
| 2026-04-27 15:01 | 22.98315 | 113.06226 | 20670 ft | 457 kts | 100° |
| 2026-04-27 15:01 | 22.97769 | 113.09589 | 19160 ft | 449 kts | 100° |
| 2026-04-27 15:01 | 22.97219 | 113.12892 | 17651 ft | 441 kts | 100° |
| 2026-04-27 15:02 | 22.96658 | 113.16133 | 16143 ft | 434 kts | 101° |
| 2026-04-27 15:02 | 22.96087 | 113.19322 | 14642 ft | 427 kts | 101° |
| 2026-04-27 15:02 | 22.95515 | 113.22449 | 13428 ft | 415 kts | 101° |
| 2026-04-27 15:02 | 22.94853 | 113.25332 | 13030 ft | 384 kts | 110° |
| 2026-04-27 15:03 | 22.93853 | 113.27905 | 12686 ft | 357 kts | 113° |
| 2026-04-27 15:03 | 22.92902 | 113.30302 | 12336 ft | 335 kts | 113° |
| 2026-04-27 15:03 | 22.92008 | 113.32560 | 11984 ft | 317 kts | 113° |
| 2026-04-27 15:03 | 22.91158 | 113.34703 | 11639 ft | 302 kts | 113° |
| 2026-04-27 15:04 | 22.90345 | 113.36748 | 11288 ft | 289 kts | 113° |
| 2026-04-27 15:04 | 22.89553 | 113.38736 | 10941 ft | 287 kts | 113° |
| 2026-04-27 15:04 | 22.88764 | 113.40717 | 10591 ft | 286 kts | 113° |
| 2026-04-27 15:04 | 22.87988 | 113.42665 | 10244 ft | 285 kts | 113° |
| 2026-04-27 15:05 | 22.87203 | 113.44630 | 9890 ft | 283 kts | 114° |
| 2026-04-27 15:05 | 22.86422 | 113.46585 | 9544 ft | 282 kts | 114° |
| 2026-04-27 15:05 | 22.85643 | 113.48531 | 9192 ft | 280 kts | 114° |
| 2026-04-27 15:05 | 22.84868 | 113.50464 | 8836 ft | 279 kts | 114° |
| 2026-04-27 15:06 | 22.84097 | 113.52383 | 8492 ft | 277 kts | 114° |
| 2026-04-27 15:06 | 22.83332 | 113.54287 | 8140 ft | 274 kts | 114° |
| 2026-04-27 15:06 | 22.82574 | 113.56178 | 7787 ft | 272 kts | 114° |
| 2026-04-27 15:06 | 22.81835 | 113.58025 | 7443 ft | 270 kts | 114° |
| 2026-04-27 15:07 | 22.81092 | 113.59882 | 7071 ft | 268 kts | 114° |
| 2026-04-27 15:07 | 22.80347 | 113.61740 | 6647 ft | 269 kts | 114° |
| 2026-04-27 15:07 | 22.79600 | 113.63599 | 6214 ft | 269 kts | 114° |
| 2026-04-27 15:07 | 22.78852 | 113.65458 | 5798 ft | 269 kts | 114° |
| 2026-04-27 15:08 | 22.78106 | 113.67315 | 5365 ft | 269 kts | 114° |
| 2026-04-27 15:08 | 22.77363 | 113.69170 | 4931 ft | 268 kts | 114° |
| 2026-04-27 15:08 | 22.76625 | 113.71006 | 4436 ft | 270 kts | 114° |
| 2026-04-27 15:08 | 22.75678 | 113.72798 | 3452 ft | 287 kts | 134° |
| 2026-04-27 15:09 | 22.73944 | 113.74021 | 2151 ft | 313 kts | 157° |
| 2026-04-27 15:09 | 22.71928 | 113.74944 | 1470 ft | 309 kts | 156° |
| 2026-04-27 15:09 | 22.70066 | 113.75923 | 1067 ft | 286 kts | 153° |
| 2026-04-27 15:09 | 22.68362 | 113.76877 | 700 ft | 266 kts | 153° |
| 2026-04-27 15:10 | 22.66775 | 113.77756 | 359 ft | 244 kts | 153° |
| 2026-04-27 15:10 | 22.65358 | 113.78533 | 96 ft | 220 kts | 153° |
| 2026-04-27 15:10 | 22.64073 | 113.79237 | 15 ft | 194 kts | 153° |
| 2026-04-27 15:10 | 22.63371 | 113.79615 | 3 ft | 47 kts | 152° |
| 2026-04-27 15:11 | 22.63232 | 113.79764 | 5 ft | 23 kts | 130° |
| 2026-04-27 15:11 | 22.63162 | 113.79878 | 6 ft | 12 kts | 92° |
| 2026-04-27 15:11 | 22.63181 | 113.79950 | 9 ft | 8 kts | 63° |
| 2026-04-27 15:11 | 22.63200 | 113.79988 | 10 ft | 4 kts | 62° |
| 2026-04-27 15:12 | 22.63213 | 113.80016 | 11 ft | 9 kts | 62° |
| 2026-04-27 15:12 | 22.63256 | 113.80104 | 13 ft | 14 kts | 62° |
| 2026-04-27 15:12 | 22.63296 | 113.80196 | 13 ft | 13 kts | 80° |
| 2026-04-27 15:12 | 22.63272 | 113.80241 | 13 ft | 5 kts | 150° |
| 2026-04-27 15:13 | 22.63248 | 113.80254 | 14 ft | 2 kts | 154° |
| 2026-04-27 15:13 | 22.63246 | 113.80255 | 15 ft | 0 kts | 154° |